sensor_id;sensor_type;location;lat;lon;timestamp;temperature;humidity
9542;DHT22;4809;48.224;8.572;2022-10-31T00:02:25;10.80;79.00
9542;DHT22;4809;48.224;8.572;2022-10-31T00:04:50;10.80;78.90
9542;DHT22;4809;48.224;8.572;2022-10-31T00:07:16;10.80;78.40
9542;DHT22;4809;48.224;8.572;2022-10-31T00:09:41;10.80;78.40
9542;DHT22;4809;48.224;8.572;2022-10-31T00:12:07;10.80;78.70
9542;DHT22;4809;48.224;8.572;2022-10-31T00:14:33;10.80;78.80
9542;DHT22;4809;48.224;8.572;2022-10-31T00:16:58;10.80;78.70
9542;DHT22;4809;48.224;8.572;2022-10-31T00:19:24;10.90;78.30
9542;DHT22;4809;48.224;8.572;2022-10-31T00:21:51;10.80;78.00
9542;DHT22;4809;48.224;8.572;2022-10-31T00:24:17;10.90;78.20
9542;DHT22;4809;48.224;8.572;2022-10-31T00:26:43;10.90;78.20
9542;DHT22;4809;48.224;8.572;2022-10-31T00:29:09;10.90;78.20
9542;DHT22;4809;48.224;8.572;2022-10-31T00:31:35;10.90;78.20
9542;DHT22;4809;48.224;8.572;2022-10-31T00:34:01;10.90;78.40
9542;DHT22;4809;48.224;8.572;2022-10-31T00:36:28;10.90;78.20
9542;DHT22;4809;48.224;8.572;2022-10-31T00:38:54;11.00;78.30
9542;DHT22;4809;48.224;8.572;2022-10-31T00:41:19;11.00;78.10
9542;DHT22;4809;48.224;8.572;2022-10-31T00:43:45;11.00;77.70
9542;DHT22;4809;48.224;8.572;2022-10-31T00:46:12;11.00;77.20
9542;DHT22;4809;48.224;8.572;2022-10-31T00:48:37;11.00;77.10
9542;DHT22;4809;48.224;8.572;2022-10-31T00:51:03;10.90;77.10
9542;DHT22;4809;48.224;8.572;2022-10-31T00:53:29;10.80;77.30
9542;DHT22;4809;48.224;8.572;2022-10-31T00:55:54;10.80;77.50
9542;DHT22;4809;48.224;8.572;2022-10-31T00:58:20;10.70;77.30
9542;DHT22;4809;48.224;8.572;2022-10-31T01:00:49;10.70;77.60
9542;DHT22;4809;48.224;8.572;2022-10-31T01:03:21;10.60;77.30
9542;DHT22;4809;48.224;8.572;2022-10-31T01:06:13;10.60;77.60
9542;DHT22;4809;48.224;8.572;2022-10-31T01:08:39;10.60;77.70
9542;DHT22;4809;48.224;8.572;2022-10-31T01:11:14;10.50;78.10
9542;DHT22;4809;48.224;8.572;2022-10-31T01:13:40;10.40;78.20
9542;DHT22;4809;48.224;8.572;2022-10-31T01:16:07;10.40;78.20
9542;DHT22;4809;48.224;8.572;2022-10-31T01:18:34;10.30;78.40
9542;DHT22;4809;48.224;8.572;2022-10-31T01:21:03;10.30;78.70
9542;DHT22;4809;48.224;8.572;2022-10-31T01:23:30;10.20;78.30
9542;DHT22;4809;48.224;8.572;2022-10-31T01:26:15;10.30;78.30
9542;DHT22;4809;48.224;8.572;2022-10-31T01:28:50;10.30;78.30
9542;DHT22;4809;48.224;8.572;2022-10-31T01:31:17;10.30;78.30
9542;DHT22;4809;48.224;8.572;2022-10-31T01:33:44;10.20;78.50
9542;DHT22;4809;48.224;8.572;2022-10-31T01:36:18;10.20;79.00
9542;DHT22;4809;48.224;8.572;2022-10-31T01:38:45;10.20;79.20
9542;DHT22;4809;48.224;8.572;2022-10-31T01:41:12;10.20;79.20
9542;DHT22;4809;48.224;8.572;2022-10-31T01:43:46;10.20;79.70
9542;DHT22;4809;48.224;8.572;2022-10-31T01:46:12;10.00;79.80
9542;DHT22;4809;48.224;8.572;2022-10-31T01:48:40;10.00;80.00
9542;DHT22;4809;48.224;8.572;2022-10-31T01:51:06;9.90;81.10
9542;DHT22;4809;48.224;8.572;2022-10-31T01:53:33;10.00;80.50
9542;DHT22;4809;48.224;8.572;2022-10-31T01:56:00;10.00;80.60
9542;DHT22;4809;48.224;8.572;2022-10-31T01:58:28;9.90;81.50
9542;DHT22;4809;48.224;8.572;2022-10-31T02:00:59;9.90;81.70
9542;DHT22;4809;48.224;8.572;2022-10-31T02:03:25;9.90;82.10
9542;DHT22;4809;48.224;8.572;2022-10-31T02:05:54;9.90;82.20
9542;DHT22;4809;48.224;8.572;2022-10-31T02:08:28;10.00;80.80
9542;DHT22;4809;48.224;8.572;2022-10-31T02:10:57;10.00;80.80
9542;DHT22;4809;48.224;8.572;2022-10-31T02:13:23;10.00;80.60
9542;DHT22;4809;48.224;8.572;2022-10-31T02:15:57;10.00;80.60
9542;DHT22;4809;48.224;8.572;2022-10-31T02:18:25;10.00;80.50
9542;DHT22;4809;48.224;8.572;2022-10-31T02:21:00;10.10;80.40
9542;DHT22;4809;48.224;8.572;2022-10-31T02:23:45;10.10;79.60
9542;DHT22;4809;48.224;8.572;2022-10-31T02:26:53;10.10;79.40
9542;DHT22;4809;48.224;8.572;2022-10-31T02:35:44;9.90;80.50
9542;DHT22;4809;48.224;8.572;2022-10-31T02:41:21;9.90;80.00
9542;DHT22;4809;48.224;8.572;2022-10-31T02:44:14;9.90;79.80
9542;DHT22;4809;48.224;8.572;2022-10-31T02:46:48;9.90;79.90
9542;DHT22;4809;48.224;8.572;2022-10-31T02:52:25;9.80;80.80
9542;DHT22;4809;48.224;8.572;2022-10-31T02:54:51;9.80;80.80
9542;DHT22;4809;48.224;8.572;2022-10-31T02:57:27;9.70;80.50
9542;DHT22;4809;48.224;8.572;2022-10-31T03:00:06;9.80;80.50
9542;DHT22;4809;48.224;8.572;2022-10-31T03:08:34;9.70;81.20
9542;DHT22;4809;48.224;8.572;2022-10-31T03:11:05;9.60;81.60
9542;DHT22;4809;48.224;8.572;2022-10-31T03:13:56;9.50;81.80
9542;DHT22;4809;48.224;8.572;2022-10-31T03:16:29;9.50;82.00
9542;DHT22;4809;48.224;8.572;2022-10-31T03:19:06;9.50;82.20
9542;DHT22;4809;48.224;8.572;2022-10-31T03:24:13;9.50;83.10
9542;DHT22;4809;48.224;8.572;2022-10-31T03:26:44;9.50;83.40
9542;DHT22;4809;48.224;8.572;2022-10-31T03:29:13;9.60;83.60
9542;DHT22;4809;48.224;8.572;2022-10-31T03:34:12;9.60;82.20
9542;DHT22;4809;48.224;8.572;2022-10-31T03:36:40;9.70;82.10
9542;DHT22;4809;48.224;8.572;2022-10-31T03:39:08;9.70;82.40
9542;DHT22;4809;48.224;8.572;2022-10-31T03:41:40;9.60;82.90
9542;DHT22;4809;48.224;8.572;2022-10-31T03:44:14;9.60;81.60
9542;DHT22;4809;48.224;8.572;2022-10-31T03:46:40;9.60;81.60
9542;DHT22;4809;48.224;8.572;2022-10-31T03:49:07;9.60;81.60
9542;DHT22;4809;48.224;8.572;2022-10-31T03:51:46;9.60;81.00
9542;DHT22;4809;48.224;8.572;2022-10-31T03:54:41;9.60;80.70
9542;DHT22;4809;48.224;8.572;2022-10-31T03:57:23;9.60;80.30
9542;DHT22;4809;48.224;8.572;2022-10-31T04:00:03;9.50;80.30
9542;DHT22;4809;48.224;8.572;2022-10-31T04:02:31;9.50;80.50
9542;DHT22;4809;48.224;8.572;2022-10-31T04:04:59;9.40;81.20
9542;DHT22;4809;48.224;8.572;2022-10-31T04:07:28;9.40;81.80
9542;DHT22;4809;48.224;8.572;2022-10-31T04:09:59;9.40;82.10
9542;DHT22;4809;48.224;8.572;2022-10-31T04:12:26;9.40;82.60
9542;DHT22;4809;48.224;8.572;2022-10-31T04:14:54;9.20;82.40
9542;DHT22;4809;48.224;8.572;2022-10-31T04:17:23;9.20;82.60
9542;DHT22;4809;48.224;8.572;2022-10-31T04:19:52;9.00;82.70
9542;DHT22;4809;48.224;8.572;2022-10-31T04:22:18;8.90;82.90
9542;DHT22;4809;48.224;8.572;2022-10-31T04:24:44;9.00;83.40
9542;DHT22;4809;48.224;8.572;2022-10-31T04:27:09;9.00;83.40
9542;DHT22;4809;48.224;8.572;2022-10-31T04:29:36;8.90;83.00
9542;DHT22;4809;48.224;8.572;2022-10-31T04:32:01;8.80;83.30
9542;DHT22;4809;48.224;8.572;2022-10-31T04:34:27;8.70;83.30
9542;DHT22;4809;48.224;8.572;2022-10-31T04:36:53;8.70;83.60
9542;DHT22;4809;48.224;8.572;2022-10-31T04:39:18;8.70;84.30
9542;DHT22;4809;48.224;8.572;2022-10-31T04:41:44;8.80;83.80
9542;DHT22;4809;48.224;8.572;2022-10-31T04:44:09;8.70;83.70
9542;DHT22;4809;48.224;8.572;2022-10-31T04:46:35;8.70;83.70
9542;DHT22;4809;48.224;8.572;2022-10-31T04:49:01;8.70;83.80
9542;DHT22;4809;48.224;8.572;2022-10-31T04:51:26;8.70;83.90
9542;DHT22;4809;48.224;8.572;2022-10-31T04:53:52;8.70;84.10
9542;DHT22;4809;48.224;8.572;2022-10-31T04:56:18;8.70;83.80
9542;DHT22;4809;48.224;8.572;2022-10-31T04:58:43;8.70;83.90
9542;DHT22;4809;48.224;8.572;2022-10-31T05:01:09;8.80;84.30
9542;DHT22;4809;48.224;8.572;2022-10-31T05:03:35;8.80;84.30
9542;DHT22;4809;48.224;8.572;2022-10-31T05:06:00;8.80;84.30
9542;DHT22;4809;48.224;8.572;2022-10-31T05:08:26;8.80;84.40
9542;DHT22;4809;48.224;8.572;2022-10-31T05:10:52;8.80;84.30
9542;DHT22;4809;48.224;8.572;2022-10-31T05:13:17;8.80;84.00
9542;DHT22;4809;48.224;8.572;2022-10-31T05:15:43;8.80;84.20
9542;DHT22;4809;48.224;8.572;2022-10-31T05:18:09;8.70;84.10
9542;DHT22;4809;48.224;8.572;2022-10-31T05:20:34;8.70;83.90
9542;DHT22;4809;48.224;8.572;2022-10-31T05:23:00;8.70;82.80
9542;DHT22;4809;48.224;8.572;2022-10-31T05:25:27;8.80;83.00
9542;DHT22;4809;48.224;8.572;2022-10-31T05:27:54;8.70;83.00
9542;DHT22;4809;48.224;8.572;2022-10-31T05:30:23;8.70;83.30
9542;DHT22;4809;48.224;8.572;2022-10-31T05:32:50;8.60;83.40
9542;DHT22;4809;48.224;8.572;2022-10-31T05:35:18;8.60;83.90
9542;DHT22;4809;48.224;8.572;2022-10-31T05:37:44;8.60;84.30
9542;DHT22;4809;48.224;8.572;2022-10-31T05:40:11;8.70;84.40
9542;DHT22;4809;48.224;8.572;2022-10-31T05:42:41;8.70;84.00
9542;DHT22;4809;48.224;8.572;2022-10-31T05:45:08;8.70;83.40
9542;DHT22;4809;48.224;8.572;2022-10-31T05:47:34;8.70;82.70
9542;DHT22;4809;48.224;8.572;2022-10-31T05:50:00;8.70;83.70
9542;DHT22;4809;48.224;8.572;2022-10-31T05:52:26;8.70;83.70
9542;DHT22;4809;48.224;8.572;2022-10-31T05:54:51;8.70;83.00
9542;DHT22;4809;48.224;8.572;2022-10-31T05:57:17;8.80;84.20
9542;DHT22;4809;48.224;8.572;2022-10-31T05:59:43;8.70;84.50
9542;DHT22;4809;48.224;8.572;2022-10-31T06:02:08;8.60;85.10
9542;DHT22;4809;48.224;8.572;2022-10-31T06:04:34;8.60;85.00
9542;DHT22;4809;48.224;8.572;2022-10-31T06:07:00;8.60;84.60
9542;DHT22;4809;48.224;8.572;2022-10-31T06:09:25;8.70;84.10
9542;DHT22;4809;48.224;8.572;2022-10-31T06:11:51;8.70;83.50
9542;DHT22;4809;48.224;8.572;2022-10-31T06:14:17;8.70;83.30
9542;DHT22;4809;48.224;8.572;2022-10-31T06:16:42;8.70;83.70
9542;DHT22;4809;48.224;8.572;2022-10-31T06:19:08;8.70;84.00
9542;DHT22;4809;48.224;8.572;2022-10-31T06:21:33;8.80;83.80
9542;DHT22;4809;48.224;8.572;2022-10-31T06:23:59;8.80;83.50
9542;DHT22;4809;48.224;8.572;2022-10-31T06:26:25;8.70;83.20
9542;DHT22;4809;48.224;8.572;2022-10-31T06:28:50;8.80;83.30
9542;DHT22;4809;48.224;8.572;2022-10-31T06:31:16;8.80;83.20
9542;DHT22;4809;48.224;8.572;2022-10-31T06:33:42;8.80;83.20
9542;DHT22;4809;48.224;8.572;2022-10-31T06:36:09;8.90;83.10
9542;DHT22;4809;48.224;8.572;2022-10-31T06:38:35;8.90;82.60
9542;DHT22;4809;48.224;8.572;2022-10-31T06:41:04;9.00;82.60
9542;DHT22;4809;48.224;8.572;2022-10-31T06:43:30;9.00;82.90
9542;DHT22;4809;48.224;8.572;2022-10-31T06:45:56;9.00;83.00
9542;DHT22;4809;48.224;8.572;2022-10-31T06:48:22;9.10;82.80
9542;DHT22;4809;48.224;8.572;2022-10-31T06:50:48;9.10;82.80
9542;DHT22;4809;48.224;8.572;2022-10-31T06:53:14;9.00;82.80
9542;DHT22;4809;48.224;8.572;2022-10-31T06:55:40;9.10;83.60
9542;DHT22;4809;48.224;8.572;2022-10-31T06:58:06;9.20;82.70
9542;DHT22;4809;48.224;8.572;2022-10-31T07:00:32;9.20;82.70
9542;DHT22;4809;48.224;8.572;2022-10-31T07:03:03;9.30;82.90
9542;DHT22;4809;48.224;8.572;2022-10-31T07:05:32;9.40;83.00
9542;DHT22;4809;48.224;8.572;2022-10-31T07:08:00;9.60;82.80
9542;DHT22;4809;48.224;8.572;2022-10-31T07:10:28;9.70;82.50
9542;DHT22;4809;48.224;8.572;2022-10-31T07:12:55;9.80;82.40
9542;DHT22;4809;48.224;8.572;2022-10-31T07:15:22;9.90;82.40
9542;DHT22;4809;48.224;8.572;2022-10-31T07:17:47;10.00;81.00
9542;DHT22;4809;48.224;8.572;2022-10-31T07:20:13;10.20;81.00
9542;DHT22;4809;48.224;8.572;2022-10-31T07:22:39;10.40;80.80
9542;DHT22;4809;48.224;8.572;2022-10-31T07:25:05;10.60;80.60
9542;DHT22;4809;48.224;8.572;2022-10-31T07:27:41;10.80;80.40
9542;DHT22;4809;48.224;8.572;2022-10-31T07:30:09;11.00;80.10
9542;DHT22;4809;48.224;8.572;2022-10-31T07:32:42;11.10;80.00
9542;DHT22;4809;48.224;8.572;2022-10-31T07:35:14;11.30;79.70
9542;DHT22;4809;48.224;8.572;2022-10-31T07:37:40;11.40;78.70
9542;DHT22;4809;48.224;8.572;2022-10-31T07:40:07;11.50;78.00
9542;DHT22;4809;48.224;8.572;2022-10-31T07:45:04;11.60;77.20
9542;DHT22;4809;48.224;8.572;2022-10-31T07:47:30;11.80;76.80
9542;DHT22;4809;48.224;8.572;2022-10-31T07:50:02;12.10;76.40
9542;DHT22;4809;48.224;8.572;2022-10-31T07:52:28;12.20;76.20
9542;DHT22;4809;48.224;8.572;2022-10-31T07:54:54;12.40;76.60
9542;DHT22;4809;48.224;8.572;2022-10-31T07:57:19;12.50;77.20
9542;DHT22;4809;48.224;8.572;2022-10-31T07:59:45;12.60;77.30
9542;DHT22;4809;48.224;8.572;2022-10-31T08:02:10;12.90;76.30
9542;DHT22;4809;48.224;8.572;2022-10-31T08:04:36;13.00;76.00
9542;DHT22;4809;48.224;8.572;2022-10-31T08:07:02;13.10;75.20
9542;DHT22;4809;48.224;8.572;2022-10-31T08:09:27;13.20;74.20
9542;DHT22;4809;48.224;8.572;2022-10-31T08:11:53;13.30;74.90
9542;DHT22;4809;48.224;8.572;2022-10-31T08:14:19;13.40;74.00
9542;DHT22;4809;48.224;8.572;2022-10-31T08:16:44;13.50;73.50
9542;DHT22;4809;48.224;8.572;2022-10-31T08:19:10;13.40;74.40
9542;DHT22;4809;48.224;8.572;2022-10-31T08:21:36;13.40;74.60
9542;DHT22;4809;48.224;8.572;2022-10-31T08:24:02;13.50;75.00
9542;DHT22;4809;48.224;8.572;2022-10-31T08:26:27;13.70;76.20
9542;DHT22;4809;48.224;8.572;2022-10-31T08:28:53;13.90;76.00
9542;DHT22;4809;48.224;8.572;2022-10-31T08:31:20;14.10;74.70
9542;DHT22;4809;48.224;8.572;2022-10-31T08:33:46;14.20;73.00
9542;DHT22;4809;48.224;8.572;2022-10-31T08:36:12;14.20;72.00
9542;DHT22;4809;48.224;8.572;2022-10-31T08:38:40;14.40;72.20
9542;DHT22;4809;48.224;8.572;2022-10-31T08:41:06;14.50;71.00
9542;DHT22;4809;48.224;8.572;2022-10-31T08:43:31;14.70;71.80
9542;DHT22;4809;48.224;8.572;2022-10-31T08:45:57;14.80;71.20
9542;DHT22;4809;48.224;8.572;2022-10-31T08:48:23;14.90;70.40
9542;DHT22;4809;48.224;8.572;2022-10-31T08:50:48;15.00;70.80
9542;DHT22;4809;48.224;8.572;2022-10-31T08:53:18;14.90;69.50
9542;DHT22;4809;48.224;8.572;2022-10-31T08:55:46;14.90;69.80
9542;DHT22;4809;48.224;8.572;2022-10-31T08:58:16;15.10;70.30
9542;DHT22;4809;48.224;8.572;2022-10-31T09:00:43;15.20;70.30
9542;DHT22;4809;48.224;8.572;2022-10-31T09:03:13;15.10;69.90
9542;DHT22;4809;48.224;8.572;2022-10-31T09:05:39;15.20;69.80
9542;DHT22;4809;48.224;8.572;2022-10-31T09:08:06;15.30;68.80
9542;DHT22;4809;48.224;8.572;2022-10-31T09:10:33;15.50;69.40
9542;DHT22;4809;48.224;8.572;2022-10-31T09:13:01;15.50;68.30
9542;DHT22;4809;48.224;8.572;2022-10-31T09:15:30;15.70;67.70
9542;DHT22;4809;48.224;8.572;2022-10-31T09:17:56;15.90;67.50
9542;DHT22;4809;48.224;8.572;2022-10-31T09:20:22;16.10;67.10
9542;DHT22;4809;48.224;8.572;2022-10-31T09:22:48;16.30;66.70
9542;DHT22;4809;48.224;8.572;2022-10-31T09:25:20;16.50;67.00
9542;DHT22;4809;48.224;8.572;2022-10-31T09:27:45;16.60;66.40
9542;DHT22;4809;48.224;8.572;2022-10-31T09:30:11;16.70;66.50
9542;DHT22;4809;48.224;8.572;2022-10-31T09:32:37;16.80;66.50
9542;DHT22;4809;48.224;8.572;2022-10-31T09:35:03;16.90;67.00
9542;DHT22;4809;48.224;8.572;2022-10-31T09:37:28;17.00;66.40
9542;DHT22;4809;48.224;8.572;2022-10-31T09:39:54;17.10;65.70
9542;DHT22;4809;48.224;8.572;2022-10-31T09:50:18;17.80;65.40
9542;DHT22;4809;48.224;8.572;2022-10-31T09:52:58;18.00;64.30
9542;DHT22;4809;48.224;8.572;2022-10-31T09:55:39;18.10;64.20
9542;DHT22;4809;48.224;8.572;2022-10-31T09:58:13;18.40;65.10
9542;DHT22;4809;48.224;8.572;2022-10-31T10:00:41;18.70;63.20
9542;DHT22;4809;48.224;8.572;2022-10-31T10:03:17;19.00;63.20
9542;DHT22;4809;48.224;8.572;2022-10-31T10:05:54;19.00;61.50
9542;DHT22;4809;48.224;8.572;2022-10-31T10:08:26;19.30;62.00
9542;DHT22;4809;48.224;8.572;2022-10-31T10:19:23;19.50;61.40
9542;DHT22;4809;48.224;8.572;2022-10-31T10:27:27;19.80;60.70
9542;DHT22;4809;48.224;8.572;2022-10-31T10:32:28;19.90;60.20
9542;DHT22;4809;48.224;8.572;2022-10-31T10:34:59;19.90;61.50
9542;DHT22;4809;48.224;8.572;2022-10-31T10:37:32;19.90;61.50
9542;DHT22;4809;48.224;8.572;2022-10-31T10:40:32;19.90;60.40
9542;DHT22;4809;48.224;8.572;2022-10-31T10:43:34;19.90;60.40
9542;DHT22;4809;48.224;8.572;2022-10-31T10:51:36;19.90;60.10
9542;DHT22;4809;48.224;8.572;2022-10-31T10:54:39;19.90;60.40
9542;DHT22;4809;48.224;8.572;2022-10-31T10:59:47;19.90;60.60
9542;DHT22;4809;48.224;8.572;2022-10-31T11:02:25;19.90;60.40
9542;DHT22;4809;48.224;8.572;2022-10-31T11:04:56;20.00;60.60
9542;DHT22;4809;48.224;8.572;2022-10-31T11:07:23;20.00;61.40
9542;DHT22;4809;48.224;8.572;2022-10-31T11:09:48;20.00;60.20
9542;DHT22;4809;48.224;8.572;2022-10-31T11:12:21;20.00;60.50
9542;DHT22;4809;48.224;8.572;2022-10-31T11:14:51;19.90;60.80
9542;DHT22;4809;48.224;8.572;2022-10-31T11:17:30;19.70;61.00
9542;DHT22;4809;48.224;8.572;2022-10-31T11:20:17;19.60;60.40
9542;DHT22;4809;48.224;8.572;2022-10-31T11:22:48;19.50;61.40
9542;DHT22;4809;48.224;8.572;2022-10-31T11:25:25;19.40;62.00
9542;DHT22;4809;48.224;8.572;2022-10-31T11:28:05;19.40;62.50
9542;DHT22;4809;48.224;8.572;2022-10-31T11:30:45;19.40;62.70
9542;DHT22;4809;48.224;8.572;2022-10-31T11:35:52;19.20;64.10
9542;DHT22;4809;48.224;8.572;2022-10-31T11:38:20;19.20;63.40
9542;DHT22;4809;48.224;8.572;2022-10-31T11:41:28;19.10;64.60
9542;DHT22;4809;48.224;8.572;2022-10-31T11:46:41;19.00;65.20
9542;DHT22;4809;48.224;8.572;2022-10-31T11:49:41;18.90;64.90
9542;DHT22;4809;48.224;8.572;2022-10-31T11:52:16;18.80;65.00
9542;DHT22;4809;48.224;8.572;2022-10-31T11:57:49;18.70;64.70
9542;DHT22;4809;48.224;8.572;2022-10-31T12:02:46;18.70;64.00
9542;DHT22;4809;48.224;8.572;2022-10-31T12:05:18;18.70;62.70
9542;DHT22;4809;48.224;8.572;2022-10-31T12:07:46;18.80;61.90
9542;DHT22;4809;48.224;8.572;2022-10-31T12:10:13;19.00;62.00
9542;DHT22;4809;48.224;8.572;2022-10-31T12:12:54;19.30;60.50
9542;DHT22;4809;48.224;8.572;2022-10-31T12:26:25;21.40;58.10
9542;DHT22;4809;48.224;8.572;2022-10-31T12:32:39;21.80;57.40
9542;DHT22;4809;48.224;8.572;2022-10-31T12:35:21;21.60;56.90
9542;DHT22;4809;48.224;8.572;2022-10-31T12:38:31;21.70;58.10
9542;DHT22;4809;48.224;8.572;2022-10-31T12:41:20;21.80;58.40
9542;DHT22;4809;48.224;8.572;2022-10-31T12:43:56;22.10;58.10
9542;DHT22;4809;48.224;8.572;2022-10-31T13:00:12;24.40;52.50
9542;DHT22;4809;48.224;8.572;2022-10-31T13:03:08;25.20;52.40
9542;DHT22;4809;48.224;8.572;2022-10-31T13:05:42;28.00;46.80
9542;DHT22;4809;48.224;8.572;2022-10-31T13:08:12;31.00;39.60
9542;DHT22;4809;48.224;8.572;2022-10-31T13:13:30;36.30;29.40
9542;DHT22;4809;48.224;8.572;2022-10-31T13:16:07;37.40;28.20
9542;DHT22;4809;48.224;8.572;2022-10-31T13:18:50;38.70;26.50
9542;DHT22;4809;48.224;8.572;2022-10-31T13:21:27;40.30;24.60
9542;DHT22;4809;48.224;8.572;2022-10-31T13:23:58;41.50;23.10
9542;DHT22;4809;48.224;8.572;2022-10-31T13:26:42;42.60;22.00
9542;DHT22;4809;48.224;8.572;2022-10-31T13:29:30;43.40;21.10
9542;DHT22;4809;48.224;8.572;2022-10-31T13:31:56;44.00;21.10
9542;DHT22;4809;48.224;8.572;2022-10-31T13:37:28;45.00;19.80
9542;DHT22;4809;48.224;8.572;2022-10-31T13:40:15;45.50;19.40
9542;DHT22;4809;48.224;8.572;2022-10-31T13:45:18;46.80;18.60
9542;DHT22;4809;48.224;8.572;2022-10-31T13:47:56;46.40;18.30
9542;DHT22;4809;48.224;8.572;2022-10-31T13:50:25;46.80;17.80
9542;DHT22;4809;48.224;8.572;2022-10-31T13:52:52;45.80;18.10
9542;DHT22;4809;48.224;8.572;2022-10-31T13:58:04;39.60;23.00
9542;DHT22;4809;48.224;8.572;2022-10-31T14:00:31;39.00;24.20
9542;DHT22;4809;48.224;8.572;2022-10-31T14:03:00;40.70;22.30
9542;DHT22;4809;48.224;8.572;2022-10-31T14:05:33;42.70;21.10
9542;DHT22;4809;48.224;8.572;2022-10-31T14:08:02;44.60;20.00
9542;DHT22;4809;48.224;8.572;2022-10-31T14:10:29;45.30;18.60
9542;DHT22;4809;48.224;8.572;2022-10-31T14:13:15;45.10;17.40
9542;DHT22;4809;48.224;8.572;2022-10-31T14:15:57;43.40;19.10
9542;DHT22;4809;48.224;8.572;2022-10-31T14:18:28;40.10;22.50
9542;DHT22;4809;48.224;8.572;2022-10-31T14:20:55;36.80;25.50
9542;DHT22;4809;48.224;8.572;2022-10-31T14:28:44;31.60;33.20
9542;DHT22;4809;48.224;8.572;2022-10-31T14:39:40;37.30;26.70
9542;DHT22;4809;48.224;8.572;2022-10-31T14:42:28;39.70;24.00
9542;DHT22;4809;48.224;8.572;2022-10-31T14:47:47;40.30;22.40
9542;DHT22;4809;48.224;8.572;2022-10-31T14:53:16;41.20;20.70
9542;DHT22;4809;48.224;8.572;2022-10-31T14:55:47;40.30;21.60
9542;DHT22;4809;48.224;8.572;2022-10-31T14:58:18;40.80;21.10
9542;DHT22;4809;48.224;8.572;2022-10-31T15:00:45;41.40;20.70
9542;DHT22;4809;48.224;8.572;2022-10-31T15:03:15;41.70;20.70
9542;DHT22;4809;48.224;8.572;2022-10-31T15:05:49;41.00;21.10
9542;DHT22;4809;48.224;8.572;2022-10-31T15:08:35;39.80;21.20
9542;DHT22;4809;48.224;8.572;2022-10-31T15:11:19;36.50;24.40
9542;DHT22;4809;48.224;8.572;2022-10-31T15:13:49;33.10;28.20
9542;DHT22;4809;48.224;8.572;2022-10-31T15:16:23;31.20;30.40
9542;DHT22;4809;48.224;8.572;2022-10-31T15:19:04;29.30;33.90
9542;DHT22;4809;48.224;8.572;2022-10-31T15:21:30;27.70;37.00
9542;DHT22;4809;48.224;8.572;2022-10-31T15:23:58;26.30;41.20
9542;DHT22;4809;48.224;8.572;2022-10-31T15:26:31;24.80;44.50
9542;DHT22;4809;48.224;8.572;2022-10-31T15:28:59;23.70;48.40
9542;DHT22;4809;48.224;8.572;2022-10-31T15:31:25;22.70;51.70
9542;DHT22;4809;48.224;8.572;2022-10-31T15:33:51;22.20;53.80
9542;DHT22;4809;48.224;8.572;2022-10-31T15:36:24;21.90;55.40
9542;DHT22;4809;48.224;8.572;2022-10-31T15:38:50;21.60;57.00
9542;DHT22;4809;48.224;8.572;2022-10-31T15:41:29;21.30;58.20
9542;DHT22;4809;48.224;8.572;2022-10-31T15:43:59;21.10;58.80
9542;DHT22;4809;48.224;8.572;2022-10-31T15:46:26;20.80;59.20
9542;DHT22;4809;48.224;8.572;2022-10-31T15:48:53;20.40;60.60
9542;DHT22;4809;48.224;8.572;2022-10-31T15:51:29;20.00;61.50
9542;DHT22;4809;48.224;8.572;2022-10-31T15:53:56;19.70;61.80
9542;DHT22;4809;48.224;8.572;2022-10-31T15:56:25;19.50;62.50
9542;DHT22;4809;48.224;8.572;2022-10-31T15:58:53;19.20;63.70
9542;DHT22;4809;48.224;8.572;2022-10-31T16:01:29;18.80;64.60
9542;DHT22;4809;48.224;8.572;2022-10-31T16:04:03;18.50;66.20
9542;DHT22;4809;48.224;8.572;2022-10-31T16:06:30;18.20;67.10
9542;DHT22;4809;48.224;8.572;2022-10-31T16:08:56;17.90;67.90
9542;DHT22;4809;48.224;8.572;2022-10-31T16:14:06;17.60;68.60
9542;DHT22;4809;48.224;8.572;2022-10-31T16:16:40;17.50;68.40
9542;DHT22;4809;48.224;8.572;2022-10-31T16:21:50;17.00;70.40
9542;DHT22;4809;48.224;8.572;2022-10-31T16:24:28;16.60;70.70
9542;DHT22;4809;48.224;8.572;2022-10-31T16:27:03;16.40;71.70
9542;DHT22;4809;48.224;8.572;2022-10-31T16:31:59;16.30;72.60
9542;DHT22;4809;48.224;8.572;2022-10-31T16:34:25;16.20;72.30
9542;DHT22;4809;48.224;8.572;2022-10-31T16:36:51;16.20;73.10
9542;DHT22;4809;48.224;8.572;2022-10-31T16:39:16;15.90;74.10
9542;DHT22;4809;48.224;8.572;2022-10-31T16:41:48;16.00;74.20
9542;DHT22;4809;48.224;8.572;2022-10-31T16:44:24;15.90;75.00
9542;DHT22;4809;48.224;8.572;2022-10-31T16:47:14;15.80;74.40
9542;DHT22;4809;48.224;8.572;2022-10-31T16:49:41;15.80;74.50
9542;DHT22;4809;48.224;8.572;2022-10-31T16:52:07;15.80;73.70
9542;DHT22;4809;48.224;8.572;2022-10-31T16:54:33;15.70;73.80
9542;DHT22;4809;48.224;8.572;2022-10-31T16:56:59;15.70;74.80
9542;DHT22;4809;48.224;8.572;2022-10-31T16:59:26;15.50;74.70
9542;DHT22;4809;48.224;8.572;2022-10-31T17:01:52;15.50;75.30
9542;DHT22;4809;48.224;8.572;2022-10-31T17:04:19;15.40;75.50
9542;DHT22;4809;48.224;8.572;2022-10-31T17:06:45;15.40;75.80
9542;DHT22;4809;48.224;8.572;2022-10-31T17:09:10;15.30;75.80
9542;DHT22;4809;48.224;8.572;2022-10-31T17:11:40;15.20;76.00
9542;DHT22;4809;48.224;8.572;2022-10-31T17:14:08;15.10;76.10
9542;DHT22;4809;48.224;8.572;2022-10-31T17:16:34;15.10;76.00
9542;DHT22;4809;48.224;8.572;2022-10-31T17:18:59;15.10;76.10
9542;DHT22;4809;48.224;8.572;2022-10-31T17:21:25;15.00;76.50
9542;DHT22;4809;48.224;8.572;2022-10-31T17:23:52;14.90;76.80
9542;DHT22;4809;48.224;8.572;2022-10-31T17:26:19;14.80;77.00
9542;DHT22;4809;48.224;8.572;2022-10-31T17:28:44;14.90;76.20
9542;DHT22;4809;48.224;8.572;2022-10-31T17:31:26;14.70;78.10
9542;DHT22;4809;48.224;8.572;2022-10-31T17:33:54;14.40;79.30
9542;DHT22;4809;48.224;8.572;2022-10-31T17:36:20;14.30;79.60
9542;DHT22;4809;48.224;8.572;2022-10-31T17:38:45;14.40;79.60
9542;DHT22;4809;48.224;8.572;2022-10-31T17:41:11;14.30;78.90
9542;DHT22;4809;48.224;8.572;2022-10-31T17:43:37;14.30;78.70
9542;DHT22;4809;48.224;8.572;2022-10-31T17:46:03;14.40;78.90
9542;DHT22;4809;48.224;8.572;2022-10-31T17:48:29;14.30;78.80
9542;DHT22;4809;48.224;8.572;2022-10-31T17:50:58;14.10;79.60
9542;DHT22;4809;48.224;8.572;2022-10-31T17:53:23;14.00;80.00
9542;DHT22;4809;48.224;8.572;2022-10-31T17:55:49;13.90;80.10
9542;DHT22;4809;48.224;8.572;2022-10-31T17:58:14;13.90;80.10
9542;DHT22;4809;48.224;8.572;2022-10-31T18:00:40;13.90;81.30
9542;DHT22;4809;48.224;8.572;2022-10-31T18:03:06;14.00;81.20
9542;DHT22;4809;48.224;8.572;2022-10-31T18:05:32;14.00;81.20
9542;DHT22;4809;48.224;8.572;2022-10-31T18:07:59;14.10;81.50
9542;DHT22;4809;48.224;8.572;2022-10-31T18:10:25;14.10;81.20
9542;DHT22;4809;48.224;8.572;2022-10-31T18:12:50;14.10;80.70
9542;DHT22;4809;48.224;8.572;2022-10-31T18:15:16;14.10;80.30
9542;DHT22;4809;48.224;8.572;2022-10-31T18:17:42;14.10;79.90
9542;DHT22;4809;48.224;8.572;2022-10-31T18:20:09;13.90;80.30
9542;DHT22;4809;48.224;8.572;2022-10-31T18:22:34;13.90;80.60
9542;DHT22;4809;48.224;8.572;2022-10-31T18:25:00;13.90;80.40
9542;DHT22;4809;48.224;8.572;2022-10-31T18:27:26;13.80;80.90
9542;DHT22;4809;48.224;8.572;2022-10-31T18:29:52;13.70;81.40
9542;DHT22;4809;48.224;8.572;2022-10-31T18:32:17;13.70;80.80
9542;DHT22;4809;48.224;8.572;2022-10-31T18:34:43;13.70;80.30
9542;DHT22;4809;48.224;8.572;2022-10-31T18:37:09;13.80;80.10
9542;DHT22;4809;48.224;8.572;2022-10-31T18:39:35;13.80;79.80
9542;DHT22;4809;48.224;8.572;2022-10-31T18:42:00;13.80;79.60